createdAt,value
2018-06-17T00:01:26.243Z,59.90
2018-06-17T00:03:55.506Z,60.80
2018-06-17T00:06:25.112Z,60.10
2018-06-17T00:08:54.348Z,60.40
2018-06-17T00:11:23.580Z,60.30
2018-06-17T00:13:52.837Z,59.80
2018-06-17T00:16:22.088Z,60.10
2018-06-17T00:18:51.327Z,60.50
2018-06-17T00:21:20.605Z,60.40
2018-06-17T00:23:49.924Z,61.20
2018-06-17T00:26:19.161Z,62.30
2018-06-17T00:28:48.896Z,71.50
2018-06-17T00:31:18.105Z,65.10
2018-06-17T00:33:47.403Z,65.30
2018-06-17T00:36:16.660Z,70.00
2018-06-17T00:41:14.812Z,65.70
2018-06-17T00:43:44.300Z,69.90
2018-06-17T00:46:13.560Z,69.00
2018-06-17T00:48:42.813Z,69.10
2018-06-17T00:51:12.508Z,72.20
2018-06-17T00:53:41.791Z,73.20
2018-06-17T00:56:11.230Z,72.40
2018-06-17T00:58:40.525Z,70.90
2018-06-17T01:01:09.777Z,71.00
2018-06-17T01:03:39.132Z,68.50
2018-06-17T01:06:08.368Z,69.20
2018-06-17T01:08:37.588Z,70.70
2018-06-17T01:11:06.840Z,75.20
2018-06-17T01:13:36.535Z,74.10
2018-06-17T01:16:05.756Z,70.40
2018-06-17T01:18:34.965Z,69.20
2018-06-17T01:21:04.267Z,69.60
2018-06-17T01:23:33.506Z,69.40
2018-06-17T01:26:07.794Z,71.40
2018-06-17T01:28:38.408Z,71.00
2018-06-17T01:31:07.774Z,72.20
2018-06-17T01:33:37.381Z,71.50
2018-06-17T01:36:06.616Z,72.30
2018-06-17T01:38:35.846Z,71.70
2018-06-17T01:41:05.120Z,70.70
2018-06-17T01:43:34.565Z,73.70
2018-06-17T01:46:04.184Z,72.00
2018-06-17T01:48:33.438Z,71.90
2018-06-17T01:51:02.659Z,71.40
2018-06-17T01:53:31.864Z,71.80
2018-06-17T01:56:01.414Z,70.90
2018-06-17T01:58:30.624Z,76.00
2018-06-17T02:00:59.857Z,73.00
2018-06-17T02:05:39.963Z,75.70
2018-06-17T02:08:14.554Z,77.40
2018-06-17T02:10:48.968Z,76.00
2018-06-17T02:13:18.199Z,76.90
2018-06-17T02:15:47.424Z,76.60
2018-06-17T02:18:16.808Z,80.70
2018-06-17T02:20:46.049Z,78.10
2018-06-17T02:23:15.330Z,81.30
2018-06-17T02:25:45.328Z,84.50
2018-06-17T02:28:14.545Z,84.00
2018-06-17T02:30:43.797Z,83.40
2018-06-17T02:33:13.039Z,88.70
2018-06-17T02:35:42.284Z,83.50
2018-06-17T02:38:11.505Z,80.30
2018-06-17T02:40:40.838Z,83.10
2018-06-17T02:43:10.068Z,81.30
2018-06-17T02:45:44.736Z,81.90
2018-06-17T02:48:19.701Z,79.80
2018-06-17T02:50:54.324Z,82.40
2018-06-17T02:53:29.129Z,83.80
2018-06-17T02:55:58.740Z,85.40
2018-06-17T02:58:27.989Z,85.30
2018-06-17T03:00:57.233Z,86.20
2018-06-17T03:03:26.471Z,80.90
2018-06-17T03:05:56.069Z,80.30
2018-06-17T03:08:25.368Z,82.10
2018-06-17T03:10:54.700Z,81.00
2018-06-17T03:13:23.925Z,83.90
2018-06-17T03:15:53.195Z,83.40
2018-06-17T03:18:22.712Z,81.60
2018-06-17T03:20:51.945Z,82.90
2018-06-17T03:23:21.140Z,80.00
2018-06-17T03:25:55.635Z,78.80
2018-06-17T03:28:30.112Z,86.70
2018-06-17T03:31:04.480Z,84.70
2018-06-17T03:33:39.030Z,82.80
2018-06-17T03:36:09.681Z,84.80
2018-06-17T03:38:40.091Z,84.50
2018-06-17T03:41:09.801Z,86.50
2018-06-17T03:43:39.452Z,82.80
2018-06-17T03:46:09.004Z,88.10
2018-06-17T03:48:38.761Z,88.20
2018-06-17T03:51:08.231Z,87.50
2018-06-17T03:53:37.473Z,90.30
2018-06-17T03:56:06.721Z,89.20
2018-06-17T03:58:36.048Z,89.40
2018-06-17T04:01:05.302Z,90.00
2018-06-17T04:03:34.532Z,89.30
2018-06-17T04:06:03.833Z,91.90
2018-06-17T04:08:33.100Z,91.70
2018-06-17T04:11:02.297Z,92.30
2018-06-17T04:13:31.560Z,92.40
2018-06-17T04:16:02.011Z,92.30
2018-06-17T04:18:31.185Z,92.20
2018-06-17T04:21:00.657Z,92.10
2018-06-17T04:23:29.892Z,92.00
2018-06-17T04:25:59.132Z,91.10
2018-06-17T04:28:28.416Z,91.60
2018-06-17T04:30:57.659Z,92.00
2018-06-17T04:33:26.934Z,92.10
2018-06-17T04:35:56.252Z,92.40
2018-06-17T04:38:25.460Z,92.40
2018-06-17T04:40:54.687Z,92.50
2018-06-17T04:43:24.408Z,91.10
2018-06-17T04:45:53.620Z,92.10
2018-06-17T04:48:22.893Z,91.00
2018-06-17T04:50:52.590Z,92.30
2018-06-17T04:53:21.815Z,92.30
2018-06-17T04:55:51.040Z,91.90
2018-06-17T04:58:20.291Z,92.60
2018-06-17T05:00:49.527Z,91.80
2018-06-17T05:03:18.764Z,92.10
2018-06-17T05:05:48.326Z,92.20
2018-06-17T05:08:17.528Z,91.90
2018-06-17T05:10:46.756Z,91.10
2018-06-17T05:13:16.012Z,91.70
2018-06-17T05:15:45.232Z,91.80
2018-06-17T05:18:14.454Z,91.70
2018-06-17T05:20:43.690Z,91.60
2018-06-17T05:23:12.919Z,91.90
2018-06-17T05:25:42.135Z,92.40
2018-06-17T05:28:11.510Z,92.90
2018-06-17T05:30:40.707Z,92.60
2018-06-17T05:33:10.010Z,92.50
2018-06-17T05:35:39.248Z,93.20
2018-06-17T05:38:08.510Z,93.20
2018-06-17T05:40:37.756Z,92.80
2018-06-17T05:43:07.044Z,92.70
2018-06-17T05:45:36.255Z,92.50
2018-06-17T05:48:05.655Z,92.50
2018-06-17T05:50:35.305Z,92.50
2018-06-17T05:53:05.068Z,92.30
2018-06-17T05:55:34.293Z,91.70
2018-06-17T05:58:03.556Z,91.50
2018-06-17T06:00:32.782Z,91.90
2018-06-17T06:05:30.928Z,91.90
2018-06-17T06:08:00.185Z,91.60
2018-06-17T06:10:29.528Z,92.20
2018-06-17T06:12:59.334Z,92.60
2018-06-17T06:15:28.545Z,92.30
2018-06-17T06:17:57.765Z,92.90
2018-06-17T06:20:27.016Z,92.80
2018-06-17T06:22:56.334Z,93.10
2018-06-17T06:25:25.604Z,92.90
2018-06-17T06:27:54.899Z,93.10
2018-06-17T06:30:24.112Z,92.80
2018-06-17T06:32:53.330Z,93.50
2018-06-17T06:35:23.027Z,92.60
2018-06-17T06:37:52.276Z,92.80
2018-06-17T06:40:21.540Z,93.60
2018-06-17T06:42:50.861Z,92.70
2018-06-17T06:45:20.085Z,93.00
2018-06-17T06:47:49.289Z,93.30
2018-06-17T06:50:18.584Z,93.40
2018-06-17T06:52:47.905Z,92.60
2018-06-17T06:55:17.520Z,92.10
2018-06-17T06:57:47.051Z,91.90
2018-06-17T07:00:16.272Z,91.30
2018-06-17T07:02:56.815Z,91.00
2018-06-17T07:07:39.730Z,90.90
2018-06-17T07:10:19.996Z,90.70
2018-06-17T07:12:49.218Z,90.90
2018-06-17T07:15:28.553Z,90.30
2018-06-17T07:18:09.007Z,90.50
2018-06-17T07:20:38.348Z,89.80
2018-06-17T07:23:07.552Z,89.70
2018-06-17T07:26:50.434Z,89.20
2018-06-17T07:29:35.200Z,87.80
2018-06-17T07:32:04.612Z,87.20
2018-06-17T07:34:33.935Z,86.70
2018-06-17T07:37:03.408Z,86.80
2018-06-17T07:41:41.113Z,87.00
2018-06-17T07:44:10.608Z,85.30
2018-06-17T07:46:39.933Z,79.90
2018-06-17T07:49:32.864Z,77.70
2018-06-17T07:52:14.637Z,77.90
2018-06-17T07:54:44.437Z,78.60
2018-06-17T07:57:15.196Z,77.10
2018-06-17T07:59:44.451Z,75.80
2018-06-17T08:02:14.192Z,73.90
2018-06-17T08:04:43.504Z,73.00
2018-06-17T08:07:12.674Z,73.10
2018-06-17T08:12:11.908Z,69.50
2018-06-17T08:14:41.147Z,69.50
2018-06-17T08:17:10.636Z,70.20
2018-06-17T08:19:40.216Z,69.60
2018-06-17T08:22:09.460Z,70.30
2018-06-17T08:24:38.844Z,68.30
2018-06-17T08:27:08.064Z,66.70
2018-06-17T08:29:37.273Z,67.50
2018-06-17T08:32:06.774Z,68.90
2018-06-17T08:34:36.063Z,65.70
2018-06-17T08:37:05.373Z,66.10
2018-06-17T08:39:34.596Z,65.90
2018-06-17T08:42:03.819Z,64.60
2018-06-17T08:44:33.028Z,64.40
2018-06-17T08:47:02.269Z,63.10
2018-06-17T08:49:31.488Z,61.90
2018-06-17T08:52:00.725Z,61.90
2018-06-17T08:54:30.472Z,61.60
2018-06-17T08:56:59.690Z,61.40
2018-06-17T08:59:29.352Z,61.60
2018-06-17T09:01:58.604Z,61.90
2018-06-17T09:04:27.824Z,61.90
2018-06-17T09:06:57.094Z,63.00
2018-06-17T09:09:26.377Z,60.90
2018-06-17T09:11:55.600Z,59.80
2018-06-17T09:14:24.821Z,59.70
2018-06-17T09:16:54.289Z,59.40
2018-06-17T09:19:23.554Z,58.60
2018-06-17T09:21:52.744Z,59.40
2018-06-17T09:24:22.092Z,59.00
2018-06-17T09:26:51.304Z,59.40
2018-06-17T09:29:20.519Z,56.90
2018-06-17T09:31:49.799Z,56.60
2018-06-17T09:34:18.976Z,56.80
2018-06-17T09:36:48.196Z,57.60
2018-06-17T09:39:17.752Z,57.80
2018-06-17T09:41:46.996Z,58.00
2018-06-17T09:44:18.359Z,58.00
2018-06-17T09:46:47.600Z,56.30
2018-06-17T09:49:16.930Z,56.30
2018-06-17T09:51:46.408Z,54.50
2018-06-17T09:54:15.788Z,56.40
2018-06-17T09:56:45.089Z,54.80
2018-06-17T09:59:14.484Z,54.50
2018-06-17T10:01:44.016Z,54.10
2018-06-17T10:04:13.243Z,53.80
2018-06-17T10:06:42.518Z,53.20
2018-06-17T10:09:12.232Z,52.80
2018-06-17T10:11:41.560Z,54.30
2018-06-17T10:14:10.827Z,52.40
2018-06-17T10:16:40.061Z,52.50
2018-06-17T10:19:09.268Z,51.30
2018-06-17T10:21:38.708Z,51.30
2018-06-17T10:24:07.908Z,51.30
2018-06-17T10:26:37.374Z,51.60
2018-06-17T10:29:06.631Z,51.60
2018-06-17T10:31:36.244Z,50.30
2018-06-17T10:34:05.677Z,50.30
2018-06-17T10:36:35.264Z,50.00
2018-06-17T10:39:07.464Z,49.80
2018-06-17T10:41:36.928Z,51.70
2018-06-17T10:44:06.846Z,50.30
2018-06-17T10:46:36.332Z,49.80
2018-06-17T10:51:34.981Z,49.60
2018-06-17T10:54:04.256Z,49.50
2018-06-17T10:56:33.563Z,49.30
2018-06-17T10:59:02.900Z,48.50
2018-06-17T11:01:32.777Z,48.20
2018-06-17T11:04:02.352Z,48.40
2018-06-17T11:06:31.680Z,48.80
2018-06-17T11:09:00.980Z,49.10
2018-06-17T11:11:30.300Z,48.80
2018-06-17T11:13:59.588Z,48.00
2018-06-17T11:16:30.205Z,47.90
2018-06-17T11:19:00.071Z,47.80
2018-06-17T11:21:30.657Z,46.50
2018-06-17T11:24:00.181Z,46.10
2018-06-17T11:26:30.026Z,46.20
2018-06-17T11:28:59.226Z,45.90
2018-06-17T11:31:29.645Z,46.40
2018-06-17T11:34:00.209Z,45.70
2018-06-17T11:36:29.940Z,45.10
2018-06-17T11:38:59.465Z,45.60
2018-06-17T11:41:28.704Z,46.40
2018-06-17T11:43:58.552Z,45.00
2018-06-17T11:51:26.711Z,44.20
2018-06-17T11:53:57.321Z,45.50
2018-06-17T11:56:26.928Z,44.00
2018-06-17T11:58:56.212Z,43.00
2018-06-17T12:01:25.812Z,43.10
2018-06-17T12:03:55.116Z,44.40
2018-06-17T12:06:24.512Z,44.40
2018-06-17T12:08:54.188Z,43.20
2018-06-17T12:11:24.717Z,41.00
2018-06-17T12:13:54.282Z,40.60
2018-06-17T12:16:24.005Z,40.90
2018-06-17T12:18:53.885Z,41.20
2018-06-17T12:21:24.499Z,38.30
2018-06-17T12:23:55.598Z,37.90
2018-06-17T12:26:25.185Z,39.50
2018-06-17T12:28:54.688Z,39.40
2018-06-17T12:31:25.377Z,39.20
2018-06-17T12:33:55.816Z,39.90
2018-06-17T12:38:54.137Z,41.50
2018-06-17T12:43:53.144Z,41.50
2018-06-17T12:46:22.904Z,41.70
2018-06-17T12:48:52.924Z,42.10
2018-06-17T12:51:22.368Z,42.20
2018-06-17T12:53:51.990Z,42.00
2018-06-17T12:56:21.741Z,42.80
2018-06-17T12:58:52.125Z,41.80
2018-06-17T13:01:22.720Z,40.70
2018-06-17T13:03:52.415Z,40.30
2018-06-17T13:06:22.121Z,39.80
2018-06-17T13:08:52.809Z,39.60
2018-06-17T13:11:22.437Z,36.70
2018-06-17T13:13:51.920Z,34.00
2018-06-17T13:16:21.518Z,35.20
2018-06-17T13:18:51.284Z,35.40
2018-06-17T13:21:20.724Z,35.30
2018-06-17T13:23:50.400Z,34.80
2018-06-17T13:26:19.904Z,33.80
2018-06-17T13:28:50.764Z,31.70
2018-06-17T13:31:20.004Z,32.00
2018-06-17T13:33:49.512Z,31.70
2018-06-17T13:36:19.188Z,31.10
2018-06-17T13:41:17.598Z,33.60
2018-06-17T13:43:47.322Z,34.00
2018-06-17T13:46:16.828Z,34.40
2018-06-17T13:48:46.674Z,34.70
2018-06-17T13:51:17.372Z,34.80
2018-06-17T13:53:47.119Z,33.50
2018-06-17T13:56:17.084Z,33.20
2018-06-17T13:58:47.144Z,34.00
2018-06-17T14:01:16.640Z,34.80
2018-06-17T14:03:46.216Z,35.70
2018-06-17T14:06:16.168Z,36.60
2018-06-17T14:08:45.763Z,36.80
2018-06-17T14:11:15.338Z,37.40
2018-06-17T14:13:44.924Z,37.00
2018-06-17T14:16:14.250Z,37.70
2018-06-17T14:18:43.822Z,38.10
2018-06-17T14:21:13.313Z,38.70
2018-06-17T14:23:42.737Z,39.30
2018-06-17T14:26:13.221Z,39.00
2018-06-17T14:28:42.568Z,38.90
2018-06-17T14:31:11.908Z,38.70
2018-06-17T14:33:41.168Z,38.10
2018-06-17T14:36:10.834Z,38.30
2018-06-17T14:38:40.345Z,38.90
2018-06-17T14:41:20.951Z,37.10
2018-06-17T14:43:56.459Z,37.70
2018-06-17T14:46:31.073Z,37.80
2018-06-17T14:49:05.815Z,38.50
2018-06-17T14:51:40.272Z,36.30
2018-06-17T14:54:09.671Z,36.00
2018-06-17T14:56:39.006Z,34.80
2018-06-17T14:59:08.681Z,35.70
2018-06-17T15:01:39.108Z,36.30
2018-06-17T15:04:11.388Z,36.00
2018-06-17T15:06:40.736Z,36.90
2018-06-17T15:09:10.760Z,37.30
2018-06-17T15:11:40.531Z,37.60
2018-06-17T15:14:09.932Z,36.90
2018-06-17T15:16:39.202Z,37.20
2018-06-17T15:19:08.872Z,37.80
2018-06-17T15:21:38.634Z,36.30
2018-06-17T15:24:09.255Z,35.60
2018-06-17T15:26:38.853Z,36.50
2018-06-17T15:29:08.161Z,37.10
2018-06-17T15:31:43.064Z,36.30
2018-06-17T15:34:17.900Z,37.30
2018-06-17T15:36:53.132Z,36.40
2018-06-17T15:39:27.836Z,34.80
2018-06-17T15:41:57.468Z,32.00
2018-06-17T15:44:26.986Z,31.40
2018-06-17T15:46:57.644Z,30.00
2018-06-17T15:49:27.339Z,31.00
2018-06-17T15:51:57.812Z,32.20
2018-06-17T15:54:28.264Z,33.80
2018-06-17T15:56:57.876Z,35.00
2018-06-17T15:59:27.504Z,36.50
2018-06-17T16:01:57.128Z,37.70
2018-06-17T16:04:29.089Z,38.20
2018-06-17T16:06:58.456Z,38.80
2018-06-17T16:09:27.985Z,39.00
2018-06-17T16:12:02.727Z,39.30
2018-06-17T16:14:40.097Z,39.50
2018-06-17T16:17:16.183Z,39.60
2018-06-17T16:19:50.720Z,40.00
2018-06-17T16:22:20.056Z,40.40
2018-06-17T16:24:50.666Z,40.70
2018-06-17T16:27:20.154Z,41.00
2018-06-17T16:29:49.520Z,41.40
2018-06-17T16:32:19.961Z,41.10
2018-06-17T16:34:49.378Z,41.40
2018-06-17T16:37:19.090Z,41.00
2018-06-17T16:39:48.561Z,40.80
2018-06-17T16:42:19.988Z,40.60
2018-06-17T16:44:50.573Z,40.40
2018-06-17T16:47:20.084Z,40.60
2018-06-17T16:49:49.424Z,40.20
2018-06-17T16:52:24.149Z,40.40
2018-06-17T16:54:58.938Z,40.60
2018-06-17T16:57:34.343Z,41.10
2018-06-17T17:00:08.995Z,41.90
2018-06-17T17:02:38.311Z,41.50
2018-06-17T17:05:14.378Z,41.80
2018-06-17T17:07:45.412Z,42.00
2018-06-17T17:10:14.783Z,41.70
2018-06-17T17:12:45.383Z,41.70
2018-06-17T17:15:14.936Z,42.00
2018-06-17T17:17:45.481Z,42.10
2018-06-17T17:20:15.501Z,42.00
2018-06-17T17:22:45.044Z,42.30
2018-06-17T17:25:14.595Z,42.40
2018-06-17T17:27:45.437Z,42.60
2018-06-17T17:30:14.740Z,42.70
2018-06-17T17:32:49.339Z,42.80
2018-06-17T17:35:23.968Z,42.90
2018-06-17T17:37:58.696Z,42.90
2018-06-17T17:40:33.455Z,42.80
2018-06-17T17:43:02.713Z,43.20
2018-06-17T17:45:35.516Z,43.30
2018-06-17T17:48:08.988Z,43.60
2018-06-17T17:50:38.333Z,43.70
2018-06-17T17:53:07.715Z,44.50
2018-06-17T17:55:48.854Z,44.20
2018-06-17T17:58:19.437Z,44.50
2018-06-17T18:00:50.013Z,44.80
2018-06-17T18:03:19.553Z,45.00
2018-06-17T18:05:49.491Z,45.10
2018-06-17T18:08:18.804Z,45.20
2018-06-17T18:10:48.048Z,45.40
2018-06-17T18:15:46.986Z,45.60
2018-06-17T18:18:16.320Z,45.80
2018-06-17T18:20:45.925Z,46.00
2018-06-17T18:23:15.622Z,46.10
2018-06-17T18:25:50.345Z,46.20
2018-06-17T18:28:24.784Z,46.40
2018-06-17T18:31:02.814Z,46.50
2018-06-17T18:33:37.509Z,46.80
2018-06-17T18:36:10.677Z,47.10
2018-06-17T18:38:41.700Z,47.10
2018-06-17T18:41:12.588Z,47.20
2018-06-17T18:43:42.408Z,47.00
2018-06-17T18:46:12.992Z,47.30
2018-06-17T18:48:42.607Z,47.60
2018-06-17T18:51:13.142Z,47.60
2018-06-17T18:53:42.461Z,47.50
2018-06-17T18:58:40.451Z,47.50
2018-06-17T19:01:09.780Z,47.30
2018-06-17T19:03:39.053Z,47.50
2018-06-17T19:06:12.727Z,47.30
2018-06-17T19:08:47.393Z,47.30
2018-06-17T19:11:22.031Z,47.50
2018-06-17T19:16:01.847Z,47.50
2018-06-17T19:18:31.493Z,47.70
2018-06-17T19:21:00.821Z,48.20
2018-06-17T19:23:30.476Z,48.10
2018-06-17T19:26:00.052Z,48.30
2018-06-17T19:28:29.565Z,48.50
2018-06-17T19:30:58.916Z,48.30
2018-06-17T19:33:28.195Z,48.70
2018-06-17T19:35:57.416Z,48.70
2018-06-17T19:38:26.716Z,49.00
2018-06-17T19:40:56.035Z,49.30
2018-06-17T19:43:25.217Z,49.40
2018-06-17T19:45:54.404Z,49.50
2018-06-17T19:48:24.224Z,49.80
2018-06-17T19:50:58.793Z,49.80
2018-06-17T19:53:33.264Z,50.10
2018-06-17T19:56:07.584Z,50.30
2018-06-17T19:58:42.043Z,50.20
2018-06-17T20:01:11.268Z,50.30
2018-06-17T20:03:40.475Z,50.90
2018-06-17T20:06:10.364Z,50.90
2018-06-17T20:08:39.546Z,50.80
2018-06-17T20:11:08.753Z,51.40
2018-06-17T20:13:38.036Z,51.00
2018-06-17T20:16:07.251Z,51.10
2018-06-17T20:18:36.688Z,51.30
2018-06-17T20:21:05.944Z,51.50
2018-06-17T20:23:35.155Z,51.20
2018-06-17T20:26:04.376Z,51.60
2018-06-17T20:28:33.675Z,51.70
2018-06-17T20:31:04.777Z,51.90
2018-06-17T20:33:39.419Z,51.70
2018-06-17T20:36:14.152Z,51.50
2018-06-17T20:38:48.604Z,52.10
2018-06-17T20:41:23.124Z,52.20
2018-06-17T20:43:54.294Z,52.50
2018-06-17T20:46:23.543Z,52.90
2018-06-17T20:48:52.756Z,53.10
2018-06-17T20:51:22.017Z,53.10
2018-06-17T20:53:51.238Z,52.70
2018-06-17T20:56:20.720Z,53.10
2018-06-17T20:58:49.968Z,52.90
2018-06-17T21:01:19.201Z,53.10
2018-06-17T21:03:48.410Z,53.10
2018-06-17T21:06:18.296Z,53.20
2018-06-17T21:08:47.528Z,53.30
2018-06-17T21:11:16.768Z,53.30
2018-06-17T21:13:45.999Z,53.60
2018-06-17T21:16:15.235Z,54.20
2018-06-17T21:20:57.326Z,53.90
2018-06-17T21:23:31.796Z,54.00
2018-06-17T21:26:06.568Z,54.50
2018-06-17T21:28:35.797Z,54.70
2018-06-17T21:31:05.052Z,55.00
2018-06-17T21:33:34.328Z,55.10
2018-06-17T21:36:03.607Z,55.00
2018-06-17T21:38:32.873Z,55.00
2018-06-17T21:41:02.144Z,55.60
2018-06-17T21:43:31.344Z,54.90
2018-06-17T21:46:00.576Z,55.00
2018-06-17T21:48:30.115Z,55.30
2018-06-17T21:50:59.324Z,55.30
2018-06-17T21:53:28.552Z,56.20
2018-06-17T21:55:58.121Z,56.00
2018-06-17T21:58:32.549Z,56.00
2018-06-17T22:01:01.806Z,56.30
2018-06-17T22:03:31.005Z,56.80
2018-06-17T22:06:00.580Z,56.40
2018-06-17T22:08:35.180Z,56.60
2018-06-17T22:11:09.655Z,56.30
2018-06-17T22:13:44.157Z,56.50
2018-06-17T22:16:18.612Z,56.30
2018-06-17T22:18:48.106Z,56.00
2018-06-17T22:21:17.348Z,55.70
2018-06-17T22:23:46.602Z,56.00
2018-06-17T22:26:15.971Z,56.10
2018-06-17T22:28:45.272Z,56.40
2018-06-17T22:31:14.543Z,56.20
2018-06-17T22:33:44.419Z,57.20
2018-06-17T22:36:13.687Z,57.10
2018-06-17T22:38:42.925Z,57.10
2018-06-17T22:41:12.163Z,56.70
2018-06-17T22:43:41.693Z,56.60
2018-06-17T22:46:10.916Z,57.00
2018-06-17T22:48:40.523Z,56.50
2018-06-17T22:51:09.766Z,57.50
2018-06-17T22:53:50.124Z,56.80
2018-06-17T22:56:24.582Z,57.80
2018-06-17T22:58:59.239Z,57.60
2018-06-17T23:01:33.920Z,57.30
2018-06-17T23:04:08.580Z,57.40
2018-06-17T23:06:43.149Z,58.30
2018-06-17T23:09:17.518Z,58.90
2018-06-17T23:11:46.752Z,58.40
2018-06-17T23:14:15.960Z,57.50
2018-06-17T23:16:45.201Z,59.10
2018-06-17T23:19:14.436Z,59.00
2018-06-17T23:21:43.752Z,59.50
2018-06-17T23:24:13.084Z,59.60
2018-06-17T23:29:11.217Z,59.20
2018-06-17T23:31:40.520Z,59.90
2018-06-17T23:34:09.772Z,60.70
2018-06-17T23:36:39.021Z,60.90
2018-06-17T23:39:09.837Z,60.00
2018-06-17T23:41:39.084Z,59.60
2018-06-17T23:44:08.337Z,60.90
2018-06-17T23:46:43.285Z,61.60
2018-06-17T23:49:18.100Z,61.60
2018-06-17T23:51:52.726Z,60.70
2018-06-17T23:54:27.084Z,62.30
2018-06-17T23:56:56.412Z,61.70
2018-06-17T23:59:25.649Z,62.70
